createdAt,value
2023-02-16T00:01:59.677Z,-3.54
2023-02-16T00:05:01.193Z,-3.54
2023-02-16T00:08:02.996Z,-3.55
2023-02-16T00:11:04.820Z,-3.57
2023-02-16T00:14:09.432Z,-3.62
2023-02-16T00:17:11.503Z,-3.68
2023-02-16T00:20:17.503Z,-3.74
2023-02-16T00:23:19.080Z,-3.78
2023-02-16T00:26:24.085Z,-3.82
2023-02-16T00:29:32.463Z,-3.94
2023-02-16T00:32:34.022Z,-4.03
2023-02-16T00:35:35.566Z,-4.09
2023-02-16T00:38:37.384Z,-4.13
2023-02-16T00:41:39.336Z,-4.14
2023-02-16T00:44:46.110Z,-4.18
2023-02-16T00:47:50.402Z,-4.20
2023-02-16T00:50:52.013Z,-4.22
2023-02-16T00:53:53.552Z,-4.24
2023-02-16T00:56:55.099Z,-4.24
2023-02-16T01:00:06.808Z,-4.24
2023-02-16T01:03:16.110Z,-4.29
2023-02-16T01:06:17.799Z,-4.36
2023-02-16T01:09:20.794Z,-4.39
2023-02-16T01:12:22.377Z,-4.36
2023-02-16T01:15:25.250Z,-4.34
2023-02-16T01:18:26.867Z,-4.34
2023-02-16T01:21:28.468Z,-4.33
2023-02-16T01:24:30.173Z,-4.28
2023-02-16T01:27:31.871Z,-4.25
2023-02-16T01:30:33.469Z,-4.22
2023-02-16T01:33:35.043Z,-4.21
2023-02-16T01:36:39.468Z,-4.20
2023-02-16T01:39:44.339Z,-4.21
2023-02-16T01:42:50.778Z,-4.23
2023-02-16T01:46:07.692Z,-4.25
2023-02-16T01:49:17.565Z,-4.26
2023-02-16T01:52:25.199Z,-4.27
2023-02-16T01:55:31.513Z,-4.29
2023-02-16T01:58:42.855Z,-4.30
2023-02-16T02:01:51.189Z,-4.27
2023-02-16T02:04:55.990Z,-4.21
2023-02-16T02:08:19.307Z,-4.16
2023-02-16T02:11:28.096Z,-4.05
2023-02-16T02:14:35.529Z,-3.89
2023-02-16T02:17:37.064Z,-3.77
2023-02-16T02:20:53.033Z,-3.71
2023-02-16T02:24:32.096Z,-3.87
2023-02-16T02:27:37.693Z,-4.04
2023-02-16T02:30:48.635Z,-4.11
2023-02-16T02:34:03.913Z,-4.18
2023-02-16T02:37:28.964Z,-4.18
2023-02-16T02:41:12.630Z,-4.15
2023-02-16T02:44:18.932Z,-4.11
2023-02-16T02:47:21.564Z,-4.01
2023-02-16T02:50:42.037Z,-3.87
2023-02-16T02:53:47.971Z,-3.69
2023-02-16T02:57:11.769Z,-3.60
2023-02-16T03:00:37.817Z,-3.52
2023-02-16T03:03:44.375Z,-3.46
2023-02-16T03:06:49.106Z,-3.42
2023-02-16T03:09:50.964Z,-3.47
2023-02-16T03:12:52.552Z,-3.55
2023-02-16T03:15:54.681Z,-3.65
2023-02-16T03:18:56.466Z,-3.77
2023-02-16T03:21:58.560Z,-3.91
2023-02-16T03:25:00.174Z,-4.01
2023-02-16T03:28:04.334Z,-4.06
2023-02-16T03:31:07.576Z,-4.03
2023-02-16T03:34:09.406Z,-3.89
2023-02-16T03:37:11.025Z,-3.78
2023-02-16T03:40:14.894Z,-3.87
2023-02-16T03:43:16.636Z,-4.05
2023-02-16T03:46:18.379Z,-4.15
2023-02-16T03:49:20.740Z,-4.25
2023-02-16T03:52:22.667Z,-4.34
2023-02-16T03:55:25.415Z,-4.31
2023-02-16T03:58:27.139Z,-4.10
2023-02-16T04:01:28.993Z,-3.83
2023-02-16T04:04:30.834Z,-3.65
2023-02-16T04:07:33.554Z,-3.54
2023-02-16T04:10:37.000Z,-3.46
2023-02-16T04:13:38.846Z,-3.48
2023-02-16T04:16:40.836Z,-3.63
2023-02-16T04:19:42.379Z,-3.72
2023-02-16T04:22:45.107Z,-3.73
2023-02-16T04:25:46.606Z,-3.70
2023-02-16T04:28:48.290Z,-3.63
2023-02-16T04:31:50.240Z,-3.56
2023-02-16T04:34:51.874Z,-3.50
2023-02-16T04:37:53.465Z,-3.51
2023-02-16T04:40:54.961Z,-3.57
2023-02-16T04:43:56.512Z,-3.66
2023-02-16T04:46:58.142Z,-3.74
2023-02-16T04:49:59.798Z,-3.77
2023-02-16T04:53:01.384Z,-3.79
2023-02-16T04:56:03.175Z,-3.79
2023-02-16T04:59:04.680Z,-3.70
2023-02-16T05:02:06.308Z,-3.65
2023-02-16T05:05:08.534Z,-3.76
2023-02-16T05:08:10.270Z,-4.05
2023-02-16T05:11:12.285Z,-4.31
2023-02-16T05:14:26.175Z,-4.38
2023-02-16T05:17:27.855Z,-4.40
2023-02-16T05:20:29.645Z,-4.52
2023-02-16T05:23:31.238Z,-4.57
2023-02-16T05:26:34.412Z,-4.61
2023-02-16T05:29:36.031Z,-4.58
2023-02-16T05:32:37.564Z,-4.44
2023-02-16T05:35:39.227Z,-4.13
2023-02-16T05:38:40.878Z,-3.64
2023-02-16T05:41:42.597Z,-3.38
2023-02-16T05:44:44.211Z,-3.32
2023-02-16T05:47:47.291Z,-3.28
2023-02-16T05:50:49.059Z,-3.29
2023-02-16T05:53:51.059Z,-3.34
2023-02-16T05:56:52.850Z,-3.37
2023-02-16T05:59:54.328Z,-3.34
2023-02-16T06:02:55.915Z,-3.24
2023-02-16T06:06:00.471Z,-3.09
2023-02-16T06:09:02.108Z,-2.90
2023-02-16T06:12:04.174Z,-2.76
2023-02-16T06:15:05.992Z,-2.64
2023-02-16T06:18:07.451Z,-2.52
2023-02-16T06:21:09.167Z,-2.39
2023-02-16T06:24:12.516Z,-1.95
2023-02-16T06:27:14.188Z,-1.33
2023-02-16T06:30:16.549Z,-1.05
2023-02-16T06:33:18.147Z,-0.80
2023-02-16T06:36:20.778Z,-0.64
2023-02-16T06:39:22.559Z,-0.55
2023-02-16T06:42:24.097Z,-0.30
2023-02-16T06:45:25.645Z,-0.08
2023-02-16T06:48:27.367Z,0.13
2023-02-16T06:51:29.574Z,0.26
2023-02-16T06:54:31.230Z,0.48
2023-02-16T06:57:32.801Z,0.86
2023-02-16T07:00:34.711Z,1.21
2023-02-16T07:03:41.884Z,1.36
2023-02-16T07:06:43.510Z,1.26
2023-02-16T07:09:45.218Z,1.19
2023-02-16T07:12:47.957Z,1.12
2023-02-16T07:15:49.600Z,0.92
2023-02-16T07:18:51.325Z,0.80
2023-02-16T07:21:52.913Z,0.81
2023-02-16T07:24:54.490Z,0.80
2023-02-16T07:27:56.176Z,0.86
2023-02-16T07:30:57.969Z,0.93
2023-02-16T07:33:59.467Z,0.99
2023-02-16T07:37:01.051Z,1.05
2023-02-16T07:40:02.686Z,1.17
2023-02-16T07:43:05.757Z,1.37
2023-02-16T07:46:07.355Z,1.67
2023-02-16T07:49:09.113Z,1.87
2023-02-16T07:52:10.966Z,1.94
2023-02-16T07:55:12.626Z,2.06
2023-02-16T07:58:14.678Z,2.08
2023-02-16T08:01:16.181Z,2.05
2023-02-16T08:04:17.846Z,2.14
2023-02-16T08:07:21.078Z,2.23
2023-02-16T08:10:22.744Z,2.35
2023-02-16T08:13:24.572Z,2.54
2023-02-16T08:16:27.078Z,2.73
2023-02-16T08:19:28.911Z,2.96
2023-02-16T08:22:30.951Z,3.26
2023-02-16T08:25:36.309Z,3.51
2023-02-16T08:28:38.090Z,3.80
2023-02-16T08:31:40.099Z,3.86
2023-02-16T08:34:43.382Z,3.94
2023-02-16T08:37:45.272Z,3.96
2023-02-16T08:40:50.364Z,4.02
2023-02-16T08:43:52.106Z,4.07
2023-02-16T08:46:55.628Z,4.32
2023-02-16T08:49:57.221Z,4.61
2023-02-16T08:52:58.645Z,4.94
2023-02-16T08:56:04.376Z,5.18
2023-02-16T08:59:06.137Z,5.51
2023-02-16T09:02:07.744Z,5.70
2023-02-16T09:05:09.474Z,5.86
2023-02-16T09:08:11.165Z,6.16
2023-02-16T09:11:15.323Z,6.36
2023-02-16T09:14:20.883Z,6.53
2023-02-16T09:17:22.422Z,6.81
2023-02-16T09:20:24.091Z,7.22
2023-02-16T09:23:25.685Z,7.60
2023-02-16T09:26:30.247Z,7.69
2023-02-16T09:29:31.959Z,7.76
2023-02-16T09:32:33.680Z,7.96
2023-02-16T09:35:38.204Z,8.20
2023-02-16T09:38:40.310Z,8.41
2023-02-16T09:41:57.588Z,8.31
2023-02-16T09:45:07.306Z,8.34
2023-02-16T09:48:23.494Z,8.48
2023-02-16T09:51:34.763Z,8.53
2023-02-16T09:54:39.347Z,8.61
2023-02-16T09:58:07.785Z,8.88
2023-02-16T10:01:19.897Z,8.90
2023-02-16T10:04:36.132Z,8.90
2023-02-16T10:07:57.635Z,8.97
2023-02-16T10:11:08.110Z,9.10
2023-02-16T10:14:30.489Z,9.01
2023-02-16T10:17:38.244Z,9.08
2023-02-16T10:20:43.361Z,9.07
2023-02-16T10:24:03.064Z,9.42
2023-02-16T10:27:08.179Z,9.55
2023-02-16T10:30:22.058Z,9.61
2023-02-16T10:33:36.021Z,9.74
2023-02-16T10:36:49.647Z,9.65
2023-02-16T10:40:12.316Z,9.49
2023-02-16T10:43:21.688Z,9.50
2023-02-16T10:46:26.287Z,9.23
2023-02-16T10:49:30.564Z,9.32
2023-02-16T10:52:37.516Z,9.63
2023-02-16T10:55:39.179Z,10.15
2023-02-16T10:58:41.225Z,10.54
2023-02-16T11:01:46.297Z,10.44
2023-02-16T11:04:49.756Z,10.28
2023-02-16T11:07:56.561Z,10.23
2023-02-16T11:10:58.262Z,9.89
2023-02-16T11:14:07.999Z,9.89
2023-02-16T11:17:12.770Z,9.91
2023-02-16T11:20:32.468Z,9.88
2023-02-16T11:23:38.989Z,9.74
2023-02-16T11:26:40.665Z,9.76
2023-02-16T11:29:42.358Z,9.83
2023-02-16T11:32:43.896Z,9.90
2023-02-16T11:35:45.880Z,9.97
2023-02-16T11:39:12.122Z,10.09
2023-02-16T11:42:36.368Z,10.03
2023-02-16T11:45:37.911Z,10.14
2023-02-16T11:48:39.618Z,10.29
2023-02-16T11:51:41.223Z,10.05
2023-02-16T11:54:52.693Z,10.14
2023-02-16T11:57:54.458Z,10.21
2023-02-16T12:01:20.581Z,10.08
2023-02-16T12:04:48.344Z,9.54
2023-02-16T12:08:06.218Z,9.27
2023-02-16T12:11:16.861Z,9.07
2023-02-16T12:14:31.498Z,8.83
2023-02-16T12:17:48.526Z,8.71
2023-02-16T12:21:04.052Z,8.66
2023-02-16T12:24:30.747Z,8.58
2023-02-16T12:27:44.934Z,8.46
2023-02-16T12:30:55.586Z,8.43
2023-02-16T12:34:28.327Z,8.46
2023-02-16T12:37:48.868Z,8.55
2023-02-16T12:40:54.163Z,8.53
2023-02-16T12:44:48.500Z,8.56
2023-02-16T12:47:58.282Z,8.50
2023-02-16T12:51:02.428Z,8.54
2023-02-16T12:54:17.859Z,8.58
2023-02-16T12:57:25.103Z,8.62
2023-02-16T13:00:46.111Z,8.58
2023-02-16T13:03:52.578Z,8.69
2023-02-16T13:07:23.571Z,8.77
2023-02-16T13:10:56.457Z,8.82
2023-02-16T13:14:01.724Z,8.88
2023-02-16T13:17:11.419Z,8.88
2023-02-16T13:20:19.509Z,8.95
2023-02-16T13:23:50.599Z,8.99
2023-02-16T13:27:06.330Z,8.91
2023-02-16T13:30:07.984Z,8.90
2023-02-16T13:33:25.820Z,8.89
2023-02-16T13:36:44.933Z,8.84
2023-02-16T13:39:55.752Z,8.92
2023-02-16T13:43:14.342Z,9.08
2023-02-16T13:46:28.939Z,9.29
2023-02-16T13:49:38.740Z,9.46
2023-02-16T13:52:41.624Z,9.58
2023-02-16T13:55:43.512Z,9.66
2023-02-16T13:58:45.128Z,9.72
2023-02-16T14:01:48.280Z,9.70
2023-02-16T14:04:50.051Z,9.56
2023-02-16T14:08:18.630Z,9.38
2023-02-16T14:11:20.304Z,9.23
2023-02-16T14:14:31.132Z,9.19
2023-02-16T14:17:34.677Z,9.06
2023-02-16T14:20:36.386Z,8.95
2023-02-16T14:23:38.008Z,8.89
2023-02-16T14:26:53.522Z,8.80
2023-02-16T14:29:58.187Z,8.72
2023-02-16T14:33:12.133Z,8.65
2023-02-16T14:36:22.025Z,8.60
2023-02-16T14:39:23.636Z,8.56
2023-02-16T14:42:29.447Z,8.53
2023-02-16T14:45:52.632Z,8.52
2023-02-16T14:49:10.141Z,8.51
2023-02-16T14:52:37.889Z,8.47
2023-02-16T14:55:54.584Z,8.43
2023-02-16T14:59:01.314Z,8.39
2023-02-16T15:02:24.446Z,8.35
2023-02-16T15:05:33.790Z,8.31
2023-02-16T15:08:38.012Z,8.23
2023-02-16T15:11:50.626Z,8.08
2023-02-16T15:15:04.460Z,7.91
2023-02-16T15:18:06.019Z,7.72
2023-02-16T15:21:12.426Z,7.56
2023-02-16T15:24:22.993Z,7.42
2023-02-16T15:27:25.101Z,7.28
2023-02-16T15:30:38.913Z,7.14
2023-02-16T15:33:42.347Z,7.00
2023-02-16T15:36:45.268Z,6.89
2023-02-16T15:40:02.944Z,6.77
2023-02-16T15:43:18.508Z,6.67
2023-02-16T15:46:24.694Z,6.60
2023-02-16T15:49:28.528Z,6.49
2023-02-16T15:52:35.414Z,6.33
2023-02-16T15:55:43.076Z,6.21
2023-02-16T15:58:44.657Z,6.11
2023-02-16T16:01:46.640Z,6.02
2023-02-16T16:04:54.450Z,5.91
2023-02-16T16:07:57.250Z,5.78
2023-02-16T16:10:59.038Z,5.71
2023-02-16T16:14:02.176Z,5.66
2023-02-16T16:17:03.993Z,5.68
2023-02-16T16:20:27.581Z,5.68
2023-02-16T16:23:29.434Z,5.66
2023-02-16T16:26:32.492Z,5.63
2023-02-16T16:29:42.966Z,5.55
2023-02-16T16:32:44.748Z,5.39
2023-02-16T16:35:48.566Z,5.26
2023-02-16T16:39:08.679Z,5.12
2023-02-16T16:42:22.186Z,4.99
2023-02-16T16:45:41.435Z,4.87
2023-02-16T16:48:48.985Z,4.82
2023-02-16T16:51:53.651Z,4.75
2023-02-16T16:54:55.311Z,4.69
2023-02-16T16:58:06.669Z,4.57
2023-02-16T17:01:08.525Z,4.32
2023-02-16T17:04:10.227Z,4.18
2023-02-16T17:07:11.843Z,4.09
2023-02-16T17:10:13.430Z,4.01
2023-02-16T17:13:16.793Z,3.92
2023-02-16T17:16:28.067Z,3.93
2023-02-16T17:19:29.664Z,4.01
2023-02-16T17:22:31.250Z,4.05
2023-02-16T17:25:34.522Z,4.02
2023-02-16T17:28:36.209Z,3.99
2023-02-16T17:31:37.959Z,4.09
2023-02-16T17:34:39.654Z,4.21
2023-02-16T17:37:41.227Z,4.24
2023-02-16T17:40:42.985Z,4.14
2023-02-16T17:43:44.640Z,4.05
2023-02-16T17:46:46.395Z,4.00
2023-02-16T17:49:47.980Z,3.94
2023-02-16T17:52:49.605Z,3.91
2023-02-16T17:55:53.603Z,3.91
2023-02-16T17:58:55.292Z,3.90
2023-02-16T18:01:56.894Z,3.94
2023-02-16T18:04:58.529Z,3.96
2023-02-16T18:08:00.129Z,3.98
2023-02-16T18:11:01.614Z,3.91
2023-02-16T18:14:03.265Z,3.86
2023-02-16T18:17:05.596Z,3.78
2023-02-16T18:20:07.689Z,3.80
2023-02-16T18:23:09.527Z,3.76
2023-02-16T18:26:14.984Z,3.72
2023-02-16T18:29:16.929Z,3.65
2023-02-16T18:32:18.556Z,3.64
2023-02-16T18:35:20.455Z,3.66
2023-02-16T18:38:23.151Z,3.61
2023-02-16T18:41:24.785Z,3.58
2023-02-16T18:44:26.872Z,3.64
2023-02-16T18:47:28.570Z,3.58
2023-02-16T18:50:30.452Z,3.54
2023-02-16T18:53:32.218Z,3.54
2023-02-16T18:56:33.829Z,3.48
2023-02-16T18:59:35.648Z,3.44
2023-02-16T19:02:37.129Z,3.35
2023-02-16T19:05:38.827Z,3.25
2023-02-16T19:08:40.573Z,3.19
2023-02-16T19:11:42.161Z,3.09
2023-02-16T19:14:43.843Z,3.02
2023-02-16T19:17:45.584Z,2.95
2023-02-16T19:20:47.202Z,2.85
2023-02-16T19:23:49.079Z,2.77
2023-02-16T19:26:50.711Z,2.72
2023-02-16T19:29:52.416Z,2.64
2023-02-16T19:32:53.948Z,2.59
2023-02-16T19:36:04.044Z,2.49
2023-02-16T19:39:05.933Z,2.40
2023-02-16T19:42:07.519Z,2.36
2023-02-16T19:45:09.562Z,2.29
2023-02-16T19:48:11.252Z,2.24
2023-02-16T19:51:13.908Z,2.17
2023-02-16T19:54:15.543Z,2.14
2023-02-16T19:57:17.124Z,2.10
2023-02-16T20:00:18.907Z,2.05
2023-02-16T20:03:20.611Z,2.00
2023-02-16T20:06:23.552Z,1.97
2023-02-16T20:09:25.275Z,1.90
2023-02-16T20:12:26.788Z,1.80
2023-02-16T20:15:28.672Z,1.74
2023-02-16T20:18:30.205Z,1.68
2023-02-16T20:21:31.988Z,1.61
2023-02-16T20:24:33.476Z,1.55
2023-02-16T20:27:35.116Z,1.51
2023-02-16T20:30:36.701Z,1.50
2023-02-16T20:33:38.344Z,1.46
2023-02-16T20:36:40.034Z,1.44
2023-02-16T20:39:41.870Z,1.41
2023-02-16T20:42:43.532Z,1.37
2023-02-16T20:45:45.152Z,1.33
2023-02-16T20:48:46.696Z,1.31
2023-02-16T20:51:48.388Z,1.31
2023-02-16T20:54:49.974Z,1.34
2023-02-16T20:57:51.671Z,1.37
2023-02-16T21:00:53.442Z,1.38
2023-02-16T21:03:56.169Z,1.38
2023-02-16T21:06:57.710Z,1.33
2023-02-16T21:09:59.341Z,1.28
2023-02-16T21:13:00.855Z,1.27
2023-02-16T21:16:02.478Z,1.26
2023-02-16T21:19:11.690Z,1.23
2023-02-16T21:22:21.787Z,1.22
2023-02-16T21:25:23.420Z,1.17
2023-02-16T21:28:25.122Z,1.08
2023-02-16T21:31:27.176Z,0.98
2023-02-16T21:34:28.885Z,1.01
2023-02-16T21:37:30.510Z,1.16
2023-02-16T21:40:32.263Z,1.27
2023-02-16T21:43:33.820Z,1.25
2023-02-16T21:46:38.264Z,1.19
2023-02-16T21:49:39.850Z,1.18
2023-02-16T21:52:41.426Z,1.19
2023-02-16T21:55:43.101Z,1.18
2023-02-16T21:58:45.097Z,1.19
2023-02-16T22:01:49.109Z,1.19
2023-02-16T22:04:50.856Z,1.23
2023-02-16T22:07:52.447Z,1.30
2023-02-16T22:10:54.059Z,1.33
2023-02-16T22:13:56.912Z,1.33
2023-02-16T22:16:58.930Z,1.31
2023-02-16T22:20:00.499Z,1.33
2023-02-16T22:23:03.062Z,1.30
2023-02-16T22:26:06.333Z,1.29
2023-02-16T22:29:08.898Z,1.39
2023-02-16T22:32:13.561Z,1.48
2023-02-16T22:35:15.441Z,1.48
2023-02-16T22:38:17.275Z,1.47
2023-02-16T22:41:18.806Z,1.45
2023-02-16T22:44:20.722Z,1.40
2023-02-16T22:47:22.278Z,1.36
2023-02-16T22:50:23.930Z,1.39
2023-02-16T22:53:27.029Z,1.47
2023-02-16T22:56:30.515Z,1.58
2023-02-16T22:59:32.149Z,1.66
2023-02-16T23:02:34.445Z,1.64
2023-02-16T23:05:36.241Z,1.68
2023-02-16T23:08:37.802Z,1.68
2023-02-16T23:11:39.705Z,1.66
2023-02-16T23:14:41.375Z,1.64
2023-02-16T23:17:42.920Z,1.60
2023-02-16T23:20:44.611Z,1.53
2023-02-16T23:23:47.849Z,1.43
2023-02-16T23:26:49.551Z,1.37
2023-02-16T23:29:51.072Z,1.29
2023-02-16T23:32:52.884Z,1.20
2023-02-16T23:35:54.414Z,1.13
2023-02-16T23:39:05.765Z,1.07
2023-02-16T23:42:07.298Z,1.05
2023-02-16T23:45:09.284Z,1.03
2023-02-16T23:48:10.818Z,1.03
2023-02-16T23:51:12.739Z,1.00
2023-02-16T23:54:14.549Z,0.97
2023-02-16T23:57:16.402Z,0.94
